Terminal Aerodrome Forecast
Issued by NWS Sterling, VA

Current Version | Previous Version | Graphics & Text | Print | Product List | Glossary On
Versions: 1 2 3 4 5 6 7 8 9 10 11 12 13 14 15 16 17 18 19 20 21 22 23 24 25 26
000
FTUS41 KLWX 281453 AAA
TAFIAD
TAF AMD
KIAD 281453Z 2815/2918 33015G29KT P6SM SCT080
     FM281700 32014G27KT P6SM BKN060
     FM282200 32014G22KT P6SM SCT070
     FM290400 32009KT P6SM FEW250=

USA.gov is the U.S. government's official web portal to all federal, state and local government web resources and services.